createdAt,value
2018-07-05T00:00:53.830Z,84.87
2018-07-05T00:03:40.559Z,85.21
2018-07-05T00:06:26.846Z,86.06
2018-07-05T00:09:16.613Z,85.10
2018-07-05T00:12:03.086Z,85.65
2018-07-05T00:14:49.533Z,87.56
2018-07-05T00:17:35.988Z,87.47
2018-07-05T00:20:22.507Z,87.14
2018-07-05T00:23:08.962Z,86.98
2018-07-05T00:25:55.750Z,86.81
2018-07-05T00:28:42.304Z,87.06
2018-07-05T00:31:28.638Z,86.74
2018-07-05T00:34:14.952Z,86.23
2018-07-05T00:37:01.749Z,86.34
2018-07-05T00:39:48.083Z,87.09
2018-07-05T00:42:39.491Z,86.93
2018-07-05T00:45:26.040Z,88.58
2018-07-05T00:48:12.670Z,89.14
2018-07-05T00:50:59.232Z,88.71
2018-07-05T00:53:45.673Z,88.66
2018-07-05T00:56:32.194Z,89.07
2018-07-05T00:59:18.466Z,89.21
2018-07-05T01:02:05.096Z,88.18
2018-07-05T01:04:51.470Z,88.18
2018-07-05T01:07:37.864Z,87.89
2018-07-05T01:10:24.362Z,89.00
2018-07-05T01:13:10.731Z,88.92
2018-07-05T01:15:57.169Z,89.20
2018-07-05T01:18:43.752Z,88.27
2018-07-05T01:21:30.115Z,88.21
2018-07-05T01:24:16.636Z,87.80
2018-07-05T01:27:07.607Z,88.43
2018-07-05T01:29:54.045Z,87.65
2018-07-05T01:32:40.557Z,87.94
2018-07-05T01:35:27.013Z,87.40
2018-07-05T01:38:13.540Z,87.49
2018-07-05T01:40:59.927Z,88.20
2018-07-05T01:43:46.358Z,87.48
2018-07-05T01:46:32.812Z,87.98
2018-07-05T01:49:19.289Z,88.11
2018-07-05T01:52:10.095Z,88.71
2018-07-05T01:54:56.492Z,88.70
2018-07-05T01:57:42.822Z,88.82
2018-07-05T02:00:29.175Z,88.10
2018-07-05T02:03:15.424Z,88.94
2018-07-05T02:06:01.836Z,88.95
2018-07-05T02:08:48.176Z,89.50
2018-07-05T02:11:34.351Z,89.67
2018-07-05T02:14:20.726Z,89.98
2018-07-05T02:17:07.124Z,91.31
2018-07-05T02:19:53.548Z,90.49
2018-07-05T02:22:39.989Z,90.01
2018-07-05T02:25:26.480Z,90.18
2018-07-05T02:28:12.947Z,91.46
2018-07-05T02:31:02.711Z,91.81
2018-07-05T02:33:49.264Z,91.11
2018-07-05T02:36:35.596Z,90.75
2018-07-05T02:39:27.164Z,90.92
2018-07-05T02:42:13.860Z,89.98
2018-07-05T02:45:00.351Z,90.33
2018-07-05T02:47:46.864Z,89.06
2018-07-05T02:50:33.369Z,90.36
2018-07-05T02:53:19.738Z,90.80
2018-07-05T02:56:06.253Z,91.03
2018-07-05T02:58:52.793Z,90.86
2018-07-05T03:01:39.264Z,91.41
2018-07-05T03:04:25.508Z,91.14
2018-07-05T03:07:11.894Z,91.51
2018-07-05T03:09:58.268Z,90.66
2018-07-05T03:12:44.627Z,90.18
2018-07-05T03:15:31.001Z,90.52
2018-07-05T03:18:17.432Z,91.03
2018-07-05T03:21:03.695Z,91.93
2018-07-05T03:23:49.995Z,92.73
2018-07-05T03:26:36.380Z,93.10
2018-07-05T03:29:22.768Z,92.87
2018-07-05T03:32:09.112Z,92.27
2018-07-05T03:34:55.711Z,91.42
2018-07-05T03:37:42.036Z,91.11
2018-07-05T03:40:28.668Z,90.46
2018-07-05T03:43:15.043Z,91.02
2018-07-05T03:46:01.652Z,90.31
2018-07-05T03:48:48.049Z,90.09
2018-07-05T03:51:34.522Z,89.90
2018-07-05T03:54:21.012Z,90.41
2018-07-05T03:57:07.548Z,91.06
2018-07-05T03:59:53.832Z,90.93
2018-07-05T04:02:40.230Z,90.48
2018-07-05T04:05:26.520Z,91.43
2018-07-05T04:08:12.681Z,91.64
2018-07-05T04:10:59.159Z,91.28
2018-07-05T04:13:45.540Z,92.58
2018-07-05T04:16:31.881Z,92.55
2018-07-05T04:19:18.069Z,93.88
2018-07-05T04:22:04.346Z,94.53
2018-07-05T04:24:50.732Z,93.35
2018-07-05T04:27:37.003Z,92.39
2018-07-05T04:30:23.525Z,92.44
2018-07-05T04:33:09.997Z,91.29
2018-07-05T04:35:56.338Z,92.02
2018-07-05T04:38:42.580Z,91.13
2018-07-05T04:41:29.107Z,90.27
2018-07-05T04:44:15.596Z,89.72
2018-07-05T04:47:02.122Z,89.31
2018-07-05T04:49:48.638Z,89.54
2018-07-05T04:52:35.009Z,89.31
2018-07-05T04:55:21.352Z,89.02
2018-07-05T04:58:07.730Z,89.05
2018-07-05T05:00:53.979Z,88.58
2018-07-05T05:03:40.263Z,88.25
2018-07-05T05:06:26.524Z,88.00
2018-07-05T05:09:13.112Z,87.24
2018-07-05T05:12:03.236Z,86.70
2018-07-05T05:14:49.737Z,86.46
2018-07-05T05:17:36.937Z,86.78
2018-07-05T05:20:23.415Z,86.03
2018-07-05T05:23:09.641Z,86.27
2018-07-05T05:25:55.919Z,85.11
2018-07-05T05:28:42.474Z,85.78
2018-07-05T05:31:28.829Z,83.72
2018-07-05T05:34:15.264Z,83.38
2018-07-05T05:37:01.810Z,84.29
2018-07-05T05:39:48.168Z,84.35
2018-07-05T05:42:34.368Z,83.81
2018-07-05T05:45:20.728Z,83.22
2018-07-05T05:48:06.971Z,83.22
2018-07-05T05:50:53.120Z,83.44
2018-07-05T05:53:39.473Z,83.38
2018-07-05T05:56:25.761Z,83.73
2018-07-05T05:59:12.140Z,83.11
2018-07-05T06:01:58.484Z,83.50
2018-07-05T06:04:44.716Z,83.16
2018-07-05T06:07:31.144Z,82.98
2018-07-05T06:10:17.615Z,82.06
2018-07-05T06:13:04.133Z,82.35
2018-07-05T06:15:53.651Z,80.83
2018-07-05T06:18:39.982Z,80.80
2018-07-05T06:21:26.338Z,80.68
2018-07-05T06:24:12.760Z,80.46
2018-07-05T06:26:58.948Z,79.79
2018-07-05T06:29:45.476Z,79.59
2018-07-05T06:32:31.832Z,79.17
2018-07-05T06:35:18.244Z,79.01
2018-07-05T06:38:04.635Z,78.37
2018-07-05T06:40:50.916Z,79.45
2018-07-05T06:43:37.131Z,78.68
2018-07-05T06:46:23.427Z,78.13
2018-07-05T06:49:09.891Z,77.97
2018-07-05T06:51:56.104Z,77.02
2018-07-05T06:54:42.543Z,76.01
2018-07-05T06:57:28.789Z,76.43
2018-07-05T07:00:15.103Z,75.56
2018-07-05T07:03:01.520Z,74.74
2018-07-05T07:05:48.031Z,75.47
2018-07-05T07:08:34.400Z,75.48
2018-07-05T07:11:20.844Z,74.17
2018-07-05T07:14:07.270Z,73.52
2018-07-05T07:16:54.237Z,73.38
2018-07-05T07:19:40.598Z,72.75
2018-07-05T07:22:27.159Z,71.86
2018-07-05T07:25:13.619Z,71.25
2018-07-05T07:28:00.157Z,71.62
2018-07-05T07:30:46.675Z,70.54
2018-07-05T07:33:33.331Z,70.65
2018-07-05T07:36:19.802Z,70.58
2018-07-05T07:39:06.641Z,69.25
2018-07-05T07:41:44.525Z,69.40
2018-07-05T07:44:12.293Z,68.57
2018-07-05T07:46:47.105Z,68.51
2018-07-05T07:49:15.334Z,68.80
2018-07-05T07:51:43.055Z,68.08
2018-07-05T07:54:10.784Z,66.69
2018-07-05T07:56:38.775Z,66.81
2018-07-05T07:59:06.513Z,64.76
2018-07-05T08:01:34.223Z,64.54
2018-07-05T08:04:01.979Z,64.55
2018-07-05T08:06:29.684Z,63.61
2018-07-05T08:08:57.468Z,63.70
2018-07-05T08:11:25.252Z,61.82
2018-07-05T08:13:53.008Z,61.57
2018-07-05T08:16:20.736Z,60.25
2018-07-05T08:18:48.469Z,60.81
2018-07-05T08:21:16.234Z,59.83
2018-07-05T08:23:43.961Z,59.05
2018-07-05T08:26:11.688Z,58.31
2018-07-05T08:28:39.403Z,59.07
2018-07-05T08:31:07.124Z,57.43
2018-07-05T08:33:34.868Z,58.27
2018-07-05T08:36:02.586Z,57.29
2018-07-05T08:38:30.368Z,57.22
2018-07-05T08:40:58.044Z,61.66
2018-07-05T08:43:25.768Z,63.92
2018-07-05T08:45:53.498Z,67.97
2018-07-05T08:48:29.871Z,76.03
2018-07-05T08:50:57.597Z,77.20
2018-07-05T08:53:25.315Z,79.67
2018-07-05T08:55:53.048Z,82.77
2018-07-05T08:58:21.545Z,84.22
2018-07-05T09:00:49.247Z,87.24
2018-07-05T09:03:16.985Z,87.55
2018-07-05T09:05:44.709Z,90.71
2018-07-05T09:08:12.562Z,92.12
2018-07-05T09:10:40.318Z,92.43
2018-07-05T09:13:08.048Z,94.60
2018-07-05T09:15:36.047Z,94.17
2018-07-05T09:18:03.824Z,93.07
2018-07-05T09:20:31.571Z,94.11
2018-07-05T09:22:59.305Z,92.77
2018-07-05T09:25:33.741Z,91.34
2018-07-05T09:28:01.646Z,90.33
2018-07-05T09:30:32.509Z,92.28
2018-07-05T09:33:00.362Z,92.00
2018-07-05T09:35:28.183Z,92.77
2018-07-05T09:37:56.246Z,96.45
2018-07-05T09:40:24.016Z,94.69
2018-07-05T09:42:51.775Z,95.01
2018-07-05T09:45:19.541Z,94.16
2018-07-05T09:47:47.336Z,94.21
2018-07-05T09:50:15.176Z,94.12
2018-07-05T09:52:42.940Z,95.99
2018-07-05T09:55:11.213Z,95.05
2018-07-05T09:57:38.974Z,90.91
2018-07-05T10:00:07.057Z,88.37
2018-07-05T10:02:34.817Z,90.93
2018-07-05T10:05:03.039Z,90.85
2018-07-05T10:07:30.769Z,91.89
2018-07-05T10:09:58.516Z,91.85
2018-07-05T10:12:26.218Z,91.82
2018-07-05T10:14:53.953Z,93.92
2018-07-05T10:17:21.839Z,93.10
2018-07-05T10:19:49.917Z,93.23
2018-07-05T10:22:17.635Z,92.50
2018-07-05T10:24:45.339Z,92.43
2018-07-05T10:27:13.052Z,89.95
2018-07-05T10:29:59.452Z,89.92
2018-07-05T10:32:45.843Z,89.15
2018-07-05T10:35:13.576Z,89.59
2018-07-05T10:37:41.279Z,89.56
2018-07-05T10:40:27.945Z,91.65
2018-07-05T10:43:14.222Z,91.16
2018-07-05T10:46:01.088Z,90.29
2018-07-05T10:48:47.558Z,89.84
2018-07-05T10:51:34.101Z,86.57
2018-07-05T10:54:20.233Z,89.76
2018-07-05T10:57:06.315Z,89.37
2018-07-05T10:59:46.715Z,90.46
2018-07-05T11:02:33.024Z,89.96
2018-07-05T11:05:19.356Z,89.42
2018-07-05T11:08:05.748Z,89.34
2018-07-05T11:10:52.192Z,88.26
2018-07-05T11:13:38.560Z,84.90
2018-07-05T11:16:24.762Z,84.19
2018-07-05T11:19:10.931Z,84.79
2018-07-05T11:21:57.367Z,85.66
2018-07-05T11:24:43.625Z,83.40
2018-07-05T11:27:29.914Z,83.34
2018-07-05T11:30:16.246Z,80.98
2018-07-05T11:33:02.663Z,77.64
2018-07-05T11:35:48.818Z,81.52
2018-07-05T11:38:35.335Z,81.30
2018-07-05T11:41:21.704Z,78.60
2018-07-05T11:44:08.139Z,74.40
2018-07-05T11:46:54.397Z,75.54
2018-07-05T11:49:40.870Z,75.49
2018-07-05T11:52:27.131Z,73.13
2018-07-05T11:55:13.526Z,74.61
2018-07-05T11:58:00.018Z,73.81
2018-07-05T12:00:46.460Z,76.02
2018-07-05T12:03:32.754Z,74.90
2018-07-05T12:06:22.761Z,74.80
2018-07-05T12:09:10.041Z,77.12
2018-07-05T12:11:56.301Z,75.21
2018-07-05T12:14:42.708Z,76.21
2018-07-05T12:17:29.204Z,73.84
2018-07-05T12:20:09.778Z,73.47
2018-07-05T12:22:56.293Z,75.92
2018-07-05T12:25:42.620Z,74.31
2018-07-05T12:28:29.049Z,73.34
2018-07-05T12:31:15.464Z,71.59
2018-07-05T12:33:55.779Z,74.01
2018-07-05T12:36:42.051Z,72.71
2018-07-05T12:39:28.435Z,72.82
2018-07-05T12:42:14.812Z,74.39
2018-07-05T12:45:01.288Z,75.62
2018-07-05T12:47:47.618Z,73.85
2018-07-05T12:50:34.985Z,76.47
2018-07-05T12:53:21.440Z,77.10
2018-07-05T12:56:07.885Z,77.36
2018-07-05T12:58:54.358Z,75.42
2018-07-05T13:01:40.759Z,77.73
2018-07-05T13:04:27.000Z,76.90
2018-07-05T13:07:13.079Z,76.82
2018-07-05T13:09:59.369Z,77.28
2018-07-05T13:12:45.756Z,77.23
2018-07-05T13:15:31.943Z,78.32
2018-07-05T13:18:18.418Z,78.89
2018-07-05T13:21:04.752Z,77.85
2018-07-05T13:23:50.984Z,76.99
2018-07-05T13:26:37.545Z,78.29
2018-07-05T13:29:23.760Z,77.42
2018-07-05T13:32:04.172Z,77.89
2018-07-05T13:34:50.426Z,77.86
2018-07-05T13:37:36.860Z,79.59
2018-07-05T13:40:23.425Z,79.91
2018-07-05T13:43:09.748Z,81.26
2018-07-05T13:45:56.049Z,81.09
2018-07-05T13:48:42.204Z,79.74
2018-07-05T13:51:28.602Z,79.72
2018-07-05T13:54:15.008Z,78.78
2018-07-05T13:57:01.412Z,78.77
2018-07-05T13:59:47.953Z,76.52
2018-07-05T14:02:34.333Z,76.11
2018-07-05T14:05:20.750Z,73.89
2018-07-05T14:08:06.997Z,74.40
2018-07-05T14:10:53.324Z,74.47
2018-07-05T14:13:33.719Z,72.96
2018-07-05T14:16:20.084Z,75.28
2018-07-05T14:19:06.368Z,74.23
2018-07-05T14:21:52.727Z,74.36
2018-07-05T14:24:39.064Z,73.83
2018-07-05T14:27:25.477Z,73.48
2018-07-05T14:30:11.767Z,71.27
2018-07-05T14:32:58.292Z,72.89
2018-07-05T14:35:44.821Z,72.84
2018-07-05T14:38:31.236Z,72.30
2018-07-05T14:41:17.657Z,72.17
2018-07-05T14:44:03.805Z,73.36
2018-07-05T14:46:44.095Z,72.71
2018-07-05T14:49:30.571Z,69.77
2018-07-05T14:52:17.397Z,68.58
2018-07-05T14:55:03.773Z,67.28
2018-07-05T14:57:50.261Z,67.65
2018-07-05T15:00:36.769Z,67.06
2018-07-05T15:03:23.309Z,68.62
2018-07-05T15:06:09.688Z,68.91
2018-07-05T15:08:56.127Z,69.66
2018-07-05T15:11:42.535Z,69.14
2018-07-05T15:14:30.298Z,70.29
2018-07-05T15:17:16.807Z,69.53
2018-07-05T15:20:03.250Z,68.36
2018-07-05T15:22:49.762Z,69.56
2018-07-05T15:25:36.200Z,70.28
2018-07-05T15:28:22.486Z,71.87
2018-07-05T15:31:08.922Z,73.16
2018-07-05T15:33:55.355Z,72.45
2018-07-05T15:36:41.837Z,73.87
2018-07-05T15:39:28.015Z,73.49
2018-07-05T15:42:14.120Z,73.99
2018-07-05T15:45:00.548Z,74.17
2018-07-05T15:47:46.724Z,75.33
2018-07-05T15:50:33.316Z,74.64
2018-07-05T15:53:19.654Z,75.20
2018-07-05T15:56:06.034Z,76.17
2018-07-05T15:58:52.316Z,76.12
2018-07-05T16:01:38.692Z,76.66
2018-07-05T16:04:24.996Z,75.95
2018-07-05T16:07:11.228Z,74.51
2018-07-05T16:09:57.630Z,75.11
2018-07-05T16:12:44.125Z,72.96
2018-07-05T16:15:30.444Z,73.77
2018-07-05T16:18:16.803Z,72.90
2018-07-05T16:21:03.241Z,72.99
2018-07-05T16:23:49.553Z,72.95
2018-07-05T16:26:35.803Z,71.36
2018-07-05T16:29:22.120Z,70.23
2018-07-05T16:32:08.724Z,68.82
2018-07-05T16:34:55.059Z,67.68
2018-07-05T16:37:41.336Z,65.41
2018-07-05T16:40:27.797Z,64.87
2018-07-05T16:43:14.018Z,65.72
2018-07-05T16:46:00.495Z,66.66
2018-07-05T16:48:46.681Z,65.62
2018-07-05T16:51:33.030Z,64.49
2018-07-05T16:54:13.421Z,65.39
2018-07-05T16:56:59.709Z,64.47
2018-07-05T16:59:45.816Z,64.37
2018-07-05T17:02:32.241Z,63.80
2018-07-05T17:05:18.598Z,62.17
2018-07-05T17:08:04.997Z,62.82
2018-07-05T17:10:51.479Z,63.10
2018-07-05T17:13:37.911Z,63.12
2018-07-05T17:16:24.124Z,64.96
2018-07-05T17:19:10.388Z,64.83
2018-07-05T17:21:56.980Z,64.92
2018-07-05T17:24:43.420Z,65.30
2018-07-05T17:27:29.877Z,65.80
2018-07-05T17:30:16.165Z,66.52
2018-07-05T17:33:02.596Z,65.36
2018-07-05T17:35:48.916Z,65.01
2018-07-05T17:39:38.460Z,65.36
2018-07-05T17:42:24.747Z,65.94
2018-07-05T17:45:11.033Z,65.23
2018-07-05T17:47:57.429Z,65.24
2018-07-05T17:50:43.837Z,65.96
2018-07-05T17:53:30.430Z,65.84
2018-07-05T17:56:16.692Z,66.94
2018-07-05T17:59:02.972Z,65.91
2018-07-05T18:01:49.212Z,66.94
2018-07-05T18:04:35.691Z,67.78
2018-07-05T18:07:22.111Z,69.68
2018-07-05T18:10:08.559Z,70.70
2018-07-05T18:12:54.885Z,69.62
2018-07-05T18:15:41.317Z,69.30
2018-07-05T18:18:27.620Z,69.01
2018-07-05T18:21:14.012Z,70.42
2018-07-05T18:24:00.218Z,71.34
2018-07-05T18:26:46.509Z,70.03
2018-07-05T18:29:32.852Z,70.36
2018-07-05T18:32:19.176Z,69.27
2018-07-05T18:35:05.324Z,70.58
2018-07-05T18:37:51.759Z,71.51
2018-07-05T18:40:38.034Z,71.55
2018-07-05T18:43:24.367Z,72.37
2018-07-05T18:46:10.811Z,72.93
2018-07-05T18:48:57.160Z,73.97
2018-07-05T18:51:43.684Z,75.28
2018-07-05T18:54:30.028Z,76.36
2018-07-05T18:57:16.410Z,76.35
2018-07-05T19:00:02.729Z,75.82
2018-07-05T19:02:49.153Z,74.91
2018-07-05T19:05:35.617Z,75.51
2018-07-05T19:08:21.987Z,76.01
2018-07-05T19:11:08.356Z,76.32
2018-07-05T19:13:54.823Z,75.58
2018-07-05T19:16:41.692Z,74.82
2018-07-05T19:19:28.220Z,76.00
2018-07-05T19:22:14.724Z,76.33
2018-07-05T19:25:01.692Z,77.80
2018-07-05T19:27:48.778Z,79.14
2018-07-05T19:30:35.880Z,79.78
2018-07-05T19:33:22.707Z,80.33
2018-07-05T19:36:09.101Z,80.73
2018-07-05T19:38:55.621Z,81.25
2018-07-05T19:41:42.349Z,79.96
2018-07-05T19:44:28.839Z,79.87
2018-07-05T19:47:15.457Z,78.94
2018-07-05T19:50:01.840Z,79.64
2018-07-05T19:52:48.277Z,81.63
2018-07-05T19:55:34.701Z,82.35
2018-07-05T19:58:21.207Z,82.63
2018-07-05T20:03:47.411Z,83.48
2018-07-05T20:06:34.093Z,82.29
2018-07-05T20:09:20.635Z,83.78
2018-07-05T20:12:08.445Z,83.47
2018-07-05T20:14:54.805Z,83.69
2018-07-05T20:17:41.152Z,84.08
2018-07-05T20:20:27.549Z,83.55
2018-07-05T20:23:13.843Z,84.76
2018-07-05T20:26:00.323Z,84.06
2018-07-05T20:28:47.106Z,84.82
2018-07-05T20:31:33.420Z,85.91
2018-07-05T20:34:19.951Z,85.82
2018-07-05T20:37:06.385Z,85.55
2018-07-05T20:39:52.876Z,85.01
2018-07-05T20:42:39.929Z,85.28
2018-07-05T20:45:25.949Z,84.80
2018-07-05T20:48:12.565Z,85.56
2018-07-05T20:50:59.180Z,83.78
2018-07-05T20:53:45.512Z,79.07
2018-07-05T20:56:32.036Z,79.77
2018-07-05T20:59:18.361Z,81.29
2018-07-05T21:02:04.777Z,83.76
2018-07-05T21:04:51.137Z,84.57
2018-07-05T21:07:37.704Z,84.49
2018-07-05T21:10:24.044Z,85.44
2018-07-05T21:13:10.331Z,85.51
2018-07-05T21:15:56.777Z,84.43
2018-07-05T21:18:43.222Z,86.26
2018-07-05T21:21:29.675Z,85.95
2018-07-05T21:24:16.172Z,87.19
2018-07-05T21:27:02.682Z,83.90
2018-07-05T21:29:49.428Z,79.04
2018-07-05T21:32:35.843Z,78.26
2018-07-05T21:35:22.055Z,76.49
2018-07-05T21:38:08.586Z,77.37
2018-07-05T21:40:55.076Z,78.19
2018-07-05T21:43:41.501Z,77.77
2018-07-05T21:46:27.775Z,77.74
2018-07-05T21:49:14.020Z,78.02
2018-07-05T21:52:00.470Z,78.92
2018-07-05T21:54:46.860Z,78.21
2018-07-05T21:57:33.433Z,77.75
2018-07-05T22:00:19.812Z,78.04
2018-07-05T22:03:05.958Z,77.49
2018-07-05T22:05:52.073Z,77.89
2018-07-05T22:08:38.592Z,78.25
2018-07-05T22:11:24.994Z,78.66
2018-07-05T22:14:11.498Z,78.87
2018-07-05T22:17:03.239Z,78.57
2018-07-05T22:19:55.072Z,79.34
2018-07-05T22:22:46.796Z,79.83
2018-07-05T22:25:38.348Z,80.18
2018-07-05T22:28:30.056Z,79.95
2018-07-05T22:31:21.785Z,81.31
2018-07-05T22:34:08.301Z,81.03
2018-07-05T22:36:54.764Z,81.66
2018-07-05T22:39:41.108Z,81.12
2018-07-05T22:42:27.589Z,81.49
2018-07-05T22:45:13.923Z,81.98
2018-07-05T22:48:00.475Z,82.81
2018-07-05T22:50:46.857Z,81.79
2018-07-05T22:53:33.369Z,82.81
2018-07-05T22:56:19.652Z,81.76
2018-07-05T22:59:06.162Z,82.79
2018-07-05T23:01:52.499Z,82.63
2018-07-05T23:04:38.973Z,81.99
2018-07-05T23:07:25.475Z,82.50
2018-07-05T23:10:11.882Z,81.41
2018-07-05T23:12:58.208Z,81.92
2018-07-05T23:15:44.600Z,81.58
2018-07-05T23:18:30.989Z,81.68
2018-07-05T23:21:17.441Z,81.98
2018-07-05T23:24:03.840Z,82.22
2018-07-05T23:26:50.200Z,81.91
2018-07-05T23:29:36.716Z,82.44
2018-07-05T23:32:23.187Z,82.55
2018-07-05T23:35:09.826Z,81.78
2018-07-05T23:37:56.314Z,82.41
2018-07-05T23:40:42.866Z,82.05
2018-07-05T23:43:29.308Z,82.39
2018-07-05T23:46:15.832Z,83.02
2018-07-05T23:49:02.143Z,83.04
2018-07-05T23:51:48.627Z,82.81
2018-07-05T23:54:34.856Z,83.03
2018-07-05T23:57:21.219Z,82.58
